sensor_id;sensor_type;location;lat;lon;timestamp;temperature;humidity
5960;DHT22;3006;50.956;7.002;2023-01-15T00:01:44;9.80;99.90
5960;DHT22;3006;50.956;7.002;2023-01-15T00:04:12;9.70;99.90
5960;DHT22;3006;50.956;7.002;2023-01-15T00:06:41;9.60;99.90
5960;DHT22;3006;50.956;7.002;2023-01-15T00:09:13;9.60;99.90
5960;DHT22;3006;50.956;7.002;2023-01-15T00:11:42;9.50;99.90
5960;DHT22;3006;50.956;7.002;2023-01-15T00:14:10;9.60;99.90
5960;DHT22;3006;50.956;7.002;2023-01-15T00:16:38;9.60;99.90
5960;DHT22;3006;50.956;7.002;2023-01-15T00:19:10;9.50;99.90
5960;DHT22;3006;50.956;7.002;2023-01-15T00:21:38;9.50;99.90
5960;DHT22;3006;50.956;7.002;2023-01-15T00:24:07;9.50;99.90
5960;DHT22;3006;50.956;7.002;2023-01-15T00:26:54;9.40;99.90
5960;DHT22;3006;50.956;7.002;2023-01-15T00:29:40;9.40;99.90
5960;DHT22;3006;50.956;7.002;2023-01-15T00:32:10;9.40;99.90
5960;DHT22;3006;50.956;7.002;2023-01-15T00:34:38;9.30;99.90
5960;DHT22;3006;50.956;7.002;2023-01-15T00:37:06;9.30;99.90
5960;DHT22;3006;50.956;7.002;2023-01-15T00:39:34;9.20;99.90
5960;DHT22;3006;50.956;7.002;2023-01-15T00:42:04;9.20;99.90
5960;DHT22;3006;50.956;7.002;2023-01-15T00:44:32;9.20;99.90
5960;DHT22;3006;50.956;7.002;2023-01-15T00:47:00;9.20;99.90
5960;DHT22;3006;50.956;7.002;2023-01-15T00:49:28;9.10;99.90
5960;DHT22;3006;50.956;7.002;2023-01-15T00:51:56;9.10;99.90
5960;DHT22;3006;50.956;7.002;2023-01-15T00:54:24;9.10;99.90
5960;DHT22;3006;50.956;7.002;2023-01-15T00:56:52;9.10;99.90
5960;DHT22;3006;50.956;7.002;2023-01-15T00:59:22;9.00;99.90
5960;DHT22;3006;50.956;7.002;2023-01-15T01:01:51;9.00;99.90
5960;DHT22;3006;50.956;7.002;2023-01-15T01:04:19;9.00;99.90
5960;DHT22;3006;50.956;7.002;2023-01-15T01:06:47;9.00;99.90
5960;DHT22;3006;50.956;7.002;2023-01-15T01:09:16;9.00;99.90
5960;DHT22;3006;50.956;7.002;2023-01-15T01:11:44;9.00;99.90
5960;DHT22;3006;50.956;7.002;2023-01-15T01:14:12;9.00;99.90
5960;DHT22;3006;50.956;7.002;2023-01-15T01:16:41;8.90;99.90
5960;DHT22;3006;50.956;7.002;2023-01-15T01:19:11;9.00;99.90
5960;DHT22;3006;50.956;7.002;2023-01-15T01:21:41;8.80;99.90
5960;DHT22;3006;50.956;7.002;2023-01-15T01:24:12;8.80;99.90
5960;DHT22;3006;50.956;7.002;2023-01-15T01:26:40;8.80;99.90
5960;DHT22;3006;50.956;7.002;2023-01-15T01:29:11;8.90;99.90
5960;DHT22;3006;50.956;7.002;2023-01-15T01:31:40;8.80;99.90
5960;DHT22;3006;50.956;7.002;2023-01-15T01:34:09;8.80;99.90
5960;DHT22;3006;50.956;7.002;2023-01-15T01:36:40;8.80;99.90
5960;DHT22;3006;50.956;7.002;2023-01-15T01:39:13;8.80;99.90
5960;DHT22;3006;50.956;7.002;2023-01-15T01:41:42;8.80;99.90
5960;DHT22;3006;50.956;7.002;2023-01-15T01:47:20;8.90;99.90
5960;DHT22;3006;50.956;7.002;2023-01-15T01:49:52;8.90;99.90
5960;DHT22;3006;50.956;7.002;2023-01-15T01:52:24;8.90;99.90
5960;DHT22;3006;50.956;7.002;2023-01-15T01:54:53;8.80;99.90
5960;DHT22;3006;50.956;7.002;2023-01-15T01:57:22;8.80;99.90
5960;DHT22;3006;50.956;7.002;2023-01-15T01:59:51;8.80;99.90
5960;DHT22;3006;50.956;7.002;2023-01-15T02:02:21;8.70;99.90
5960;DHT22;3006;50.956;7.002;2023-01-15T02:04:50;8.70;99.90
5960;DHT22;3006;50.956;7.002;2023-01-15T02:07:18;8.80;99.90
5960;DHT22;3006;50.956;7.002;2023-01-15T02:09:47;8.80;99.90
5960;DHT22;3006;50.956;7.002;2023-01-15T02:12:21;8.80;99.90
5960;DHT22;3006;50.956;7.002;2023-01-15T02:14:56;8.80;99.90
5960;DHT22;3006;50.956;7.002;2023-01-15T02:17:33;8.80;99.90
5960;DHT22;3006;50.956;7.002;2023-01-15T02:20:18;8.90;99.90
5960;DHT22;3006;50.956;7.002;2023-01-15T02:22:58;8.90;99.90
5960;DHT22;3006;50.956;7.002;2023-01-15T02:25:48;8.90;99.90
5960;DHT22;3006;50.956;7.002;2023-01-15T02:28:24;8.80;99.90
5960;DHT22;3006;50.956;7.002;2023-01-15T02:30:58;8.80;99.90
5960;DHT22;3006;50.956;7.002;2023-01-15T02:33:32;8.80;99.90
5960;DHT22;3006;50.956;7.002;2023-01-15T02:36:05;8.70;99.90
5960;DHT22;3006;50.956;7.002;2023-01-15T02:38:38;8.70;99.90
5960;DHT22;3006;50.956;7.002;2023-01-15T02:41:09;8.60;99.90
5960;DHT22;3006;50.956;7.002;2023-01-15T02:43:46;8.60;99.90
5960;DHT22;3006;50.956;7.002;2023-01-15T02:46:17;8.70;99.90
5960;DHT22;3006;50.956;7.002;2023-01-15T02:48:51;8.60;99.90
5960;DHT22;3006;50.956;7.002;2023-01-15T02:51:23;8.70;99.90
5960;DHT22;3006;50.956;7.002;2023-01-15T02:53:55;8.80;99.90
5960;DHT22;3006;50.956;7.002;2023-01-15T02:56:27;8.70;99.90
5960;DHT22;3006;50.956;7.002;2023-01-15T02:59:01;8.60;99.90
5960;DHT22;3006;50.956;7.002;2023-01-15T03:01:32;8.60;99.90
5960;DHT22;3006;50.956;7.002;2023-01-15T03:04:08;8.60;99.90
5960;DHT22;3006;50.956;7.002;2023-01-15T03:06:40;8.60;99.90
5960;DHT22;3006;50.956;7.002;2023-01-15T03:09:13;8.60;99.90
5960;DHT22;3006;50.956;7.002;2023-01-15T03:11:45;8.60;99.90
5960;DHT22;3006;50.956;7.002;2023-01-15T03:14:18;8.60;99.90
5960;DHT22;3006;50.956;7.002;2023-01-15T03:16:50;8.60;99.90
5960;DHT22;3006;50.956;7.002;2023-01-15T03:19:22;8.60;99.90
5960;DHT22;3006;50.956;7.002;2023-01-15T03:21:56;8.60;99.90
5960;DHT22;3006;50.956;7.002;2023-01-15T03:24:29;8.60;99.90
5960;DHT22;3006;50.956;7.002;2023-01-15T03:26:59;8.70;99.90
5960;DHT22;3006;50.956;7.002;2023-01-15T03:29:32;8.60;99.90
5960;DHT22;3006;50.956;7.002;2023-01-15T03:32:01;8.70;99.90
5960;DHT22;3006;50.956;7.002;2023-01-15T03:34:35;8.60;99.90
5960;DHT22;3006;50.956;7.002;2023-01-15T03:37:05;8.60;99.90
5960;DHT22;3006;50.956;7.002;2023-01-15T03:39:33;8.60;99.90
5960;DHT22;3006;50.956;7.002;2023-01-15T03:42:15;8.70;99.90
5960;DHT22;3006;50.956;7.002;2023-01-15T03:44:53;8.60;99.90
5960;DHT22;3006;50.956;7.002;2023-01-15T03:47:29;8.70;99.90
5960;DHT22;3006;50.956;7.002;2023-01-15T03:50:04;8.60;99.90
5960;DHT22;3006;50.956;7.002;2023-01-15T03:52:45;8.70;99.90
5960;DHT22;3006;50.956;7.002;2023-01-15T03:55:19;8.70;99.90
5960;DHT22;3006;50.956;7.002;2023-01-15T03:58:02;8.70;99.90
5960;DHT22;3006;50.956;7.002;2023-01-15T04:00:41;8.70;99.90
5960;DHT22;3006;50.956;7.002;2023-01-15T04:03:12;8.80;99.90
5960;DHT22;3006;50.956;7.002;2023-01-15T04:05:41;8.70;99.90
5960;DHT22;3006;50.956;7.002;2023-01-15T04:08:11;8.70;99.90
5960;DHT22;3006;50.956;7.002;2023-01-15T04:10:52;8.70;99.90
5960;DHT22;3006;50.956;7.002;2023-01-15T04:13:22;8.70;99.90
5960;DHT22;3006;50.956;7.002;2023-01-15T04:15:54;8.60;99.90
5960;DHT22;3006;50.956;7.002;2023-01-15T04:18:24;8.60;99.90
5960;DHT22;3006;50.956;7.002;2023-01-15T04:20:52;8.60;99.90
5960;DHT22;3006;50.956;7.002;2023-01-15T04:23:21;8.70;99.90
5960;DHT22;3006;50.956;7.002;2023-01-15T04:25:49;8.60;99.90
5960;DHT22;3006;50.956;7.002;2023-01-15T04:28:17;8.60;99.90
5960;DHT22;3006;50.956;7.002;2023-01-15T04:30:45;8.60;99.90
5960;DHT22;3006;50.956;7.002;2023-01-15T04:33:15;8.70;99.90
5960;DHT22;3006;50.956;7.002;2023-01-15T04:35:43;8.60;99.90
5960;DHT22;3006;50.956;7.002;2023-01-15T04:38:12;8.70;99.90
5960;DHT22;3006;50.956;7.002;2023-01-15T04:40:40;8.70;99.90
5960;DHT22;3006;50.956;7.002;2023-01-15T04:43:25;8.70;99.90
5960;DHT22;3006;50.956;7.002;2023-01-15T04:46:11;8.70;99.90
5960;DHT22;3006;50.956;7.002;2023-01-15T04:48:41;8.70;99.90
5960;DHT22;3006;50.956;7.002;2023-01-15T04:51:09;8.70;99.90
5960;DHT22;3006;50.956;7.002;2023-01-15T04:53:37;8.70;99.90
5960;DHT22;3006;50.956;7.002;2023-01-15T04:56:05;8.60;99.90
5960;DHT22;3006;50.956;7.002;2023-01-15T04:58:34;8.70;99.90
5960;DHT22;3006;50.956;7.002;2023-01-15T05:01:02;8.70;99.90
5960;DHT22;3006;50.956;7.002;2023-01-15T05:03:32;8.70;99.90
5960;DHT22;3006;50.956;7.002;2023-01-15T05:06:02;8.70;99.90
5960;DHT22;3006;50.956;7.002;2023-01-15T05:08:30;8.70;99.90
5960;DHT22;3006;50.956;7.002;2023-01-15T05:11:01;8.70;99.90
5960;DHT22;3006;50.956;7.002;2023-01-15T05:13:29;8.60;99.90
5960;DHT22;3006;50.956;7.002;2023-01-15T05:16:07;8.60;99.90
5960;DHT22;3006;50.956;7.002;2023-01-15T05:18:35;8.60;99.90
5960;DHT22;3006;50.956;7.002;2023-01-15T05:21:05;8.60;99.90
5960;DHT22;3006;50.956;7.002;2023-01-15T05:23:34;8.60;99.90
5960;DHT22;3006;50.956;7.002;2023-01-15T05:26:03;8.60;99.90
5960;DHT22;3006;50.956;7.002;2023-01-15T05:28:31;8.60;99.90
5960;DHT22;3006;50.956;7.002;2023-01-15T05:31:05;8.60;99.90
5960;DHT22;3006;50.956;7.002;2023-01-15T05:33:35;8.60;99.90
5960;DHT22;3006;50.956;7.002;2023-01-15T05:36:07;8.60;99.90
5960;DHT22;3006;50.956;7.002;2023-01-15T05:38:35;8.60;99.90
5960;DHT22;3006;50.956;7.002;2023-01-15T05:41:04;8.50;99.90
5960;DHT22;3006;50.956;7.002;2023-01-15T05:43:55;8.60;99.90
5960;DHT22;3006;50.956;7.002;2023-01-15T05:46:23;8.50;99.90
5960;DHT22;3006;50.956;7.002;2023-01-15T05:48:51;8.50;99.90
5960;DHT22;3006;50.956;7.002;2023-01-15T05:51:20;8.60;99.90
5960;DHT22;3006;50.956;7.002;2023-01-15T05:53:49;8.60;99.90
5960;DHT22;3006;50.956;7.002;2023-01-15T05:56:17;8.60;99.90
5960;DHT22;3006;50.956;7.002;2023-01-15T05:58:45;8.60;99.90
5960;DHT22;3006;50.956;7.002;2023-01-15T06:01:13;8.60;99.90
5960;DHT22;3006;50.956;7.002;2023-01-15T06:03:41;8.60;99.90
5960;DHT22;3006;50.956;7.002;2023-01-15T06:06:12;8.60;99.90
5960;DHT22;3006;50.956;7.002;2023-01-15T06:08:42;8.70;99.90
5960;DHT22;3006;50.956;7.002;2023-01-15T06:11:11;8.60;99.90
5960;DHT22;3006;50.956;7.002;2023-01-15T06:13:39;8.60;99.90
5960;DHT22;3006;50.956;7.002;2023-01-15T06:16:08;8.60;99.90
5960;DHT22;3006;50.956;7.002;2023-01-15T06:18:38;8.60;99.90
5960;DHT22;3006;50.956;7.002;2023-01-15T06:21:08;8.50;99.90
5960;DHT22;3006;50.956;7.002;2023-01-15T06:23:37;8.60;99.90
5960;DHT22;3006;50.956;7.002;2023-01-15T06:26:08;8.60;99.90
5960;DHT22;3006;50.956;7.002;2023-01-15T06:28:37;8.60;99.90
5960;DHT22;3006;50.956;7.002;2023-01-15T06:31:06;8.60;99.90
5960;DHT22;3006;50.956;7.002;2023-01-15T06:33:34;8.50;99.90
5960;DHT22;3006;50.956;7.002;2023-01-15T06:36:03;8.50;99.90
5960;DHT22;3006;50.956;7.002;2023-01-15T06:38:31;8.40;99.90
5960;DHT22;3006;50.956;7.002;2023-01-15T06:41:01;8.40;99.90
5960;DHT22;3006;50.956;7.002;2023-01-15T06:43:30;8.40;99.90
5960;DHT22;3006;50.956;7.002;2023-01-15T06:46:16;8.30;99.90
5960;DHT22;3006;50.956;7.002;2023-01-15T06:49:02;8.30;99.90
5960;DHT22;3006;50.956;7.002;2023-01-15T06:51:30;8.30;99.90
5960;DHT22;3006;50.956;7.002;2023-01-15T06:53:57;8.30;99.90
5960;DHT22;3006;50.956;7.002;2023-01-15T06:56:25;8.30;99.90
5960;DHT22;3006;50.956;7.002;2023-01-15T06:58:55;8.30;99.90
5960;DHT22;3006;50.956;7.002;2023-01-15T07:01:23;8.20;99.90
5960;DHT22;3006;50.956;7.002;2023-01-15T07:03:56;8.20;99.90
5960;DHT22;3006;50.956;7.002;2023-01-15T07:06:24;8.20;99.90
5960;DHT22;3006;50.956;7.002;2023-01-15T07:08:52;8.20;99.90
5960;DHT22;3006;50.956;7.002;2023-01-15T07:11:20;8.10;99.90
5960;DHT22;3006;50.956;7.002;2023-01-15T07:13:48;8.10;99.90
5960;DHT22;3006;50.956;7.002;2023-01-15T07:16:20;8.10;99.90
5960;DHT22;3006;50.956;7.002;2023-01-15T07:18:54;8.10;99.90
5960;DHT22;3006;50.956;7.002;2023-01-15T07:21:22;8.10;99.90
5960;DHT22;3006;50.956;7.002;2023-01-15T07:23:51;8.00;99.90
5960;DHT22;3006;50.956;7.002;2023-01-15T07:26:19;7.90;99.90
5960;DHT22;3006;50.956;7.002;2023-01-15T07:28:47;7.90;99.90
5960;DHT22;3006;50.956;7.002;2023-01-15T07:31:17;7.80;99.90
5960;DHT22;3006;50.956;7.002;2023-01-15T07:33:45;7.80;99.90
5960;DHT22;3006;50.956;7.002;2023-01-15T07:36:13;7.70;99.90
5960;DHT22;3006;50.956;7.002;2023-01-15T07:38:41;7.70;99.90
5960;DHT22;3006;50.956;7.002;2023-01-15T07:41:09;7.70;99.90
5960;DHT22;3006;50.956;7.002;2023-01-15T07:43:55;7.80;99.90
5960;DHT22;3006;50.956;7.002;2023-01-15T07:46:42;7.70;99.90
5960;DHT22;3006;50.956;7.002;2023-01-15T07:49:28;7.70;99.90
5960;DHT22;3006;50.956;7.002;2023-01-15T07:52:15;7.80;99.90
5960;DHT22;3006;50.956;7.002;2023-01-15T07:54:44;7.80;99.90
5960;DHT22;3006;50.956;7.002;2023-01-15T07:57:13;7.80;99.90
5960;DHT22;3006;50.956;7.002;2023-01-15T07:59:42;7.80;99.90
5960;DHT22;3006;50.956;7.002;2023-01-15T08:02:11;7.80;99.90
5960;DHT22;3006;50.956;7.002;2023-01-15T08:04:39;7.80;99.90
5960;DHT22;3006;50.956;7.002;2023-01-15T08:07:08;7.80;99.90
5960;DHT22;3006;50.956;7.002;2023-01-15T08:09:36;7.80;99.90
5960;DHT22;3006;50.956;7.002;2023-01-15T08:12:04;7.90;99.90
5960;DHT22;3006;50.956;7.002;2023-01-15T08:14:50;7.80;99.90
5960;DHT22;3006;50.956;7.002;2023-01-15T08:17:38;7.90;99.90
5960;DHT22;3006;50.956;7.002;2023-01-15T08:20:10;7.90;99.90
5960;DHT22;3006;50.956;7.002;2023-01-15T08:22:38;7.80;99.90
5960;DHT22;3006;50.956;7.002;2023-01-15T08:25:08;7.80;99.90
5960;DHT22;3006;50.956;7.002;2023-01-15T08:27:37;7.80;99.90
5960;DHT22;3006;50.956;7.002;2023-01-15T08:30:09;7.70;99.90
5960;DHT22;3006;50.956;7.002;2023-01-15T08:32:39;7.50;99.90
5960;DHT22;3006;50.956;7.002;2023-01-15T08:35:08;7.50;99.90
5960;DHT22;3006;50.956;7.002;2023-01-15T08:37:36;7.50;99.90
5960;DHT22;3006;50.956;7.002;2023-01-15T08:40:05;7.50;99.90
5960;DHT22;3006;50.956;7.002;2023-01-15T08:42:34;7.50;99.90
5960;DHT22;3006;50.956;7.002;2023-01-15T08:45:02;7.50;99.90
5960;DHT22;3006;50.956;7.002;2023-01-15T08:47:31;7.40;99.90
5960;DHT22;3006;50.956;7.002;2023-01-15T08:50:00;7.30;99.90
5960;DHT22;3006;50.956;7.002;2023-01-15T08:52:28;7.30;99.90
5960;DHT22;3006;50.956;7.002;2023-01-15T08:54:56;7.20;99.90
5960;DHT22;3006;50.956;7.002;2023-01-15T08:57:24;7.30;99.90
5960;DHT22;3006;50.956;7.002;2023-01-15T08:59:52;7.40;99.90
5960;DHT22;3006;50.956;7.002;2023-01-15T09:02:20;7.40;99.90
5960;DHT22;3006;50.956;7.002;2023-01-15T09:04:49;7.40;99.90
5960;DHT22;3006;50.956;7.002;2023-01-15T09:07:19;7.40;99.90
5960;DHT22;3006;50.956;7.002;2023-01-15T09:09:50;7.40;99.90
5960;DHT22;3006;50.956;7.002;2023-01-15T09:12:18;7.40;99.90
5960;DHT22;3006;50.956;7.002;2023-01-15T09:14:50;7.50;99.90
5960;DHT22;3006;50.956;7.002;2023-01-15T09:17:30;7.50;99.90
5960;DHT22;3006;50.956;7.002;2023-01-15T09:19:59;7.40;99.90
5960;DHT22;3006;50.956;7.002;2023-01-15T09:22:30;7.40;99.90
5960;DHT22;3006;50.956;7.002;2023-01-15T09:24:58;7.40;99.90
5960;DHT22;3006;50.956;7.002;2023-01-15T09:27:27;7.40;99.90
5960;DHT22;3006;50.956;7.002;2023-01-15T09:29:55;7.40;99.90
5960;DHT22;3006;50.956;7.002;2023-01-15T09:32:23;7.40;99.90
5960;DHT22;3006;50.956;7.002;2023-01-15T09:34:51;7.40;99.90
5960;DHT22;3006;50.956;7.002;2023-01-15T09:37:19;7.50;99.90
5960;DHT22;3006;50.956;7.002;2023-01-15T09:39:49;7.40;99.90
5960;DHT22;3006;50.956;7.002;2023-01-15T09:42:27;7.40;99.90
5960;DHT22;3006;50.956;7.002;2023-01-15T09:45:16;7.50;99.90
5960;DHT22;3006;50.956;7.002;2023-01-15T09:47:56;7.60;99.90
5960;DHT22;3006;50.956;7.002;2023-01-15T09:50:32;7.60;99.90
5960;DHT22;3006;50.956;7.002;2023-01-15T09:53:13;7.70;99.90
5960;DHT22;3006;50.956;7.002;2023-01-15T09:55:46;7.80;99.90
5960;DHT22;3006;50.956;7.002;2023-01-15T09:58:18;8.00;99.90
5960;DHT22;3006;50.956;7.002;2023-01-15T10:00:49;8.10;99.90
5960;DHT22;3006;50.956;7.002;2023-01-15T10:03:27;8.10;99.90
5960;DHT22;3006;50.956;7.002;2023-01-15T10:06:02;8.10;99.90
5960;DHT22;3006;50.956;7.002;2023-01-15T10:08:36;8.10;99.90
5960;DHT22;3006;50.956;7.002;2023-01-15T10:11:27;8.20;99.90
5960;DHT22;3006;50.956;7.002;2023-01-15T10:14:29;8.20;99.90
5960;DHT22;3006;50.956;7.002;2023-01-15T10:17:24;8.30;99.90
5960;DHT22;3006;50.956;7.002;2023-01-15T10:19:54;8.30;99.90
5960;DHT22;3006;50.956;7.002;2023-01-15T10:22:32;8.30;99.90
5960;DHT22;3006;50.956;7.002;2023-01-15T10:25:08;8.40;99.90
5960;DHT22;3006;50.956;7.002;2023-01-15T10:27:46;8.50;99.90
5960;DHT22;3006;50.956;7.002;2023-01-15T10:30:16;8.50;99.90
5960;DHT22;3006;50.956;7.002;2023-01-15T10:32:49;8.90;99.90
5960;DHT22;3006;50.956;7.002;2023-01-15T10:35:36;9.50;99.90
5960;DHT22;3006;50.956;7.002;2023-01-15T10:38:13;10.10;99.90
5960;DHT22;3006;50.956;7.002;2023-01-15T10:41:05;10.30;99.90
5960;DHT22;3006;50.956;7.002;2023-01-15T10:43:45;10.40;99.90
5960;DHT22;3006;50.956;7.002;2023-01-15T10:46:17;11.00;99.90
5960;DHT22;3006;50.956;7.002;2023-01-15T10:48:48;10.90;99.90
5960;DHT22;3006;50.956;7.002;2023-01-15T10:51:19;10.60;99.90
5960;DHT22;3006;50.956;7.002;2023-01-15T10:53:50;10.70;99.90
5960;DHT22;3006;50.956;7.002;2023-01-15T10:56:27;10.40;99.90
5960;DHT22;3006;50.956;7.002;2023-01-15T10:59:04;9.90;99.90
5960;DHT22;3006;50.956;7.002;2023-01-15T11:01:36;9.40;99.90
5960;DHT22;3006;50.956;7.002;2023-01-15T11:04:08;9.00;99.90
5960;DHT22;3006;50.956;7.002;2023-01-15T11:06:38;9.00;99.90
5960;DHT22;3006;50.956;7.002;2023-01-15T11:09:14;8.90;99.90
5960;DHT22;3006;50.956;7.002;2023-01-15T11:11:47;9.00;99.90
5960;DHT22;3006;50.956;7.002;2023-01-15T11:14:41;9.00;99.90
5960;DHT22;3006;50.956;7.002;2023-01-15T11:17:30;9.00;99.90
5960;DHT22;3006;50.956;7.002;2023-01-15T11:20:24;9.10;99.90
5960;DHT22;3006;50.956;7.002;2023-01-15T11:22:54;9.10;99.90
5960;DHT22;3006;50.956;7.002;2023-01-15T11:25:27;9.10;99.90
5960;DHT22;3006;50.956;7.002;2023-01-15T11:27:57;9.10;99.90
5960;DHT22;3006;50.956;7.002;2023-01-15T11:30:31;9.10;99.90
5960;DHT22;3006;50.956;7.002;2023-01-15T11:33:01;9.00;99.90
5960;DHT22;3006;50.956;7.002;2023-01-15T11:35:32;9.00;99.90
5960;DHT22;3006;50.956;7.002;2023-01-15T11:38:04;9.10;99.90
5960;DHT22;3006;50.956;7.002;2023-01-15T11:40:33;9.10;99.90
5960;DHT22;3006;50.956;7.002;2023-01-15T11:43:01;9.10;99.90
5960;DHT22;3006;50.956;7.002;2023-01-15T11:45:49;9.10;99.90
5960;DHT22;3006;50.956;7.002;2023-01-15T11:48:43;9.10;99.90
5960;DHT22;3006;50.956;7.002;2023-01-15T11:51:31;9.10;99.90
5960;DHT22;3006;50.956;7.002;2023-01-15T11:54:02;9.10;99.90
5960;DHT22;3006;50.956;7.002;2023-01-15T11:56:32;9.10;99.90
5960;DHT22;3006;50.956;7.002;2023-01-15T11:59:08;9.10;99.90
5960;DHT22;3006;50.956;7.002;2023-01-15T12:01:46;9.20;99.90
5960;DHT22;3006;50.956;7.002;2023-01-15T12:04:25;9.20;99.90
5960;DHT22;3006;50.956;7.002;2023-01-15T12:06:54;9.30;99.90
5960;DHT22;3006;50.956;7.002;2023-01-15T12:09:30;9.20;99.90
5960;DHT22;3006;50.956;7.002;2023-01-15T12:12:08;9.10;99.90
5960;DHT22;3006;50.956;7.002;2023-01-15T12:15:00;9.00;99.90
5960;DHT22;3006;50.956;7.002;2023-01-15T12:17:49;9.00;99.90
5960;DHT22;3006;50.956;7.002;2023-01-15T12:20:24;9.00;99.90
5960;DHT22;3006;50.956;7.002;2023-01-15T12:23:04;9.00;99.90
5960;DHT22;3006;50.956;7.002;2023-01-15T12:25:46;9.00;99.90
5960;DHT22;3006;50.956;7.002;2023-01-15T12:28:18;9.00;99.90
5960;DHT22;3006;50.956;7.002;2023-01-15T12:30:57;9.00;99.90
5960;DHT22;3006;50.956;7.002;2023-01-15T12:33:44;9.10;99.90
5960;DHT22;3006;50.956;7.002;2023-01-15T12:36:18;9.20;99.90
5960;DHT22;3006;50.956;7.002;2023-01-15T12:38:50;9.20;99.90
5960;DHT22;3006;50.956;7.002;2023-01-15T12:41:23;9.30;99.90
5960;DHT22;3006;50.956;7.002;2023-01-15T12:44:15;9.30;99.90
5960;DHT22;3006;50.956;7.002;2023-01-15T12:47:07;9.30;99.90
5960;DHT22;3006;50.956;7.002;2023-01-15T12:49:43;9.30;99.90
5960;DHT22;3006;50.956;7.002;2023-01-15T12:52:17;9.30;99.90
5960;DHT22;3006;50.956;7.002;2023-01-15T12:54:54;9.50;99.90
5960;DHT22;3006;50.956;7.002;2023-01-15T12:57:33;9.60;99.90
5960;DHT22;3006;50.956;7.002;2023-01-15T13:00:06;9.60;99.90
5960;DHT22;3006;50.956;7.002;2023-01-15T13:02:49;9.70;99.90
5960;DHT22;3006;50.956;7.002;2023-01-15T13:05:27;9.60;99.90
5960;DHT22;3006;50.956;7.002;2023-01-15T13:08:00;9.60;99.90
5960;DHT22;3006;50.956;7.002;2023-01-15T13:10:30;9.70;99.90
5960;DHT22;3006;50.956;7.002;2023-01-15T13:13:13;9.60;99.90
5960;DHT22;3006;50.956;7.002;2023-01-15T13:15:57;9.70;99.90
5960;DHT22;3006;50.956;7.002;2023-01-15T13:18:34;9.70;99.90
5960;DHT22;3006;50.956;7.002;2023-01-15T13:21:10;9.50;99.90
5960;DHT22;3006;50.956;7.002;2023-01-15T13:23:56;9.40;99.90
5960;DHT22;3006;50.956;7.002;2023-01-15T13:26:51;9.20;99.90
5960;DHT22;3006;50.956;7.002;2023-01-15T13:29:25;9.30;99.90
5960;DHT22;3006;50.956;7.002;2023-01-15T13:32:00;9.40;99.90
5960;DHT22;3006;50.956;7.002;2023-01-15T13:34:35;9.50;99.90
5960;DHT22;3006;50.956;7.002;2023-01-15T13:37:15;9.60;99.90
5960;DHT22;3006;50.956;7.002;2023-01-15T13:39:46;9.60;99.90
5960;DHT22;3006;50.956;7.002;2023-01-15T13:42:18;9.60;99.90
5960;DHT22;3006;50.956;7.002;2023-01-15T13:45:19;9.60;99.90
5960;DHT22;3006;50.956;7.002;2023-01-15T13:47:54;9.60;99.90
5960;DHT22;3006;50.956;7.002;2023-01-15T13:50:28;9.60;99.90
5960;DHT22;3006;50.956;7.002;2023-01-15T13:53:04;9.50;99.90
5960;DHT22;3006;50.956;7.002;2023-01-15T13:55:37;9.60;99.90
5960;DHT22;3006;50.956;7.002;2023-01-15T13:58:26;9.60;99.90
5960;DHT22;3006;50.956;7.002;2023-01-15T14:01:06;9.60;99.90
5960;DHT22;3006;50.956;7.002;2023-01-15T14:03:36;9.60;99.90
5960;DHT22;3006;50.956;7.002;2023-01-15T14:06:06;9.60;99.90
5960;DHT22;3006;50.956;7.002;2023-01-15T14:08:41;9.60;99.90
5960;DHT22;3006;50.956;7.002;2023-01-15T14:11:33;9.50;99.90
5960;DHT22;3006;50.956;7.002;2023-01-15T14:14:35;9.50;99.90
5960;DHT22;3006;50.956;7.002;2023-01-15T14:17:38;9.50;99.90
5960;DHT22;3006;50.956;7.002;2023-01-15T14:20:27;9.40;99.90
5960;DHT22;3006;50.956;7.002;2023-01-15T14:23:11;9.30;99.90
5960;DHT22;3006;50.956;7.002;2023-01-15T14:25:53;9.30;99.90
5960;DHT22;3006;50.956;7.002;2023-01-15T14:28:37;9.30;99.90
5960;DHT22;3006;50.956;7.002;2023-01-15T14:31:39;9.20;99.90
5960;DHT22;3006;50.956;7.002;2023-01-15T14:34:22;9.30;99.90
5960;DHT22;3006;50.956;7.002;2023-01-15T14:36:53;9.30;99.90
5960;DHT22;3006;50.956;7.002;2023-01-15T14:39:32;9.40;99.90
5960;DHT22;3006;50.956;7.002;2023-01-15T14:42:09;9.30;99.90
5960;DHT22;3006;50.956;7.002;2023-01-15T14:45:01;9.20;99.90
5960;DHT22;3006;50.956;7.002;2023-01-15T14:47:35;9.20;99.90
5960;DHT22;3006;50.956;7.002;2023-01-15T14:50:35;9.20;99.90
5960;DHT22;3006;50.956;7.002;2023-01-15T14:53:17;9.20;99.90
5960;DHT22;3006;50.956;7.002;2023-01-15T14:55:48;9.20;99.90
5960;DHT22;3006;50.956;7.002;2023-01-15T14:58:33;9.20;99.90
5960;DHT22;3006;50.956;7.002;2023-01-15T15:01:12;9.10;99.90
5960;DHT22;3006;50.956;7.002;2023-01-15T15:03:48;9.10;99.90
5960;DHT22;3006;50.956;7.002;2023-01-15T15:06:18;9.10;99.90
5960;DHT22;3006;50.956;7.002;2023-01-15T15:08:48;9.10;99.90
5960;DHT22;3006;50.956;7.002;2023-01-15T15:11:22;9.10;99.90
5960;DHT22;3006;50.956;7.002;2023-01-15T15:14:10;9.10;99.90
5960;DHT22;3006;50.956;7.002;2023-01-15T15:16:43;9.10;99.90
5960;DHT22;3006;50.956;7.002;2023-01-15T15:19:17;9.10;99.90
5960;DHT22;3006;50.956;7.002;2023-01-15T15:21:49;9.00;99.90
5960;DHT22;3006;50.956;7.002;2023-01-15T15:24:21;9.00;99.90
5960;DHT22;3006;50.956;7.002;2023-01-15T15:26:51;9.00;99.90
5960;DHT22;3006;50.956;7.002;2023-01-15T15:29:21;9.00;99.90
5960;DHT22;3006;50.956;7.002;2023-01-15T15:31:51;9.00;99.90
5960;DHT22;3006;50.956;7.002;2023-01-15T15:34:26;8.90;99.90
5960;DHT22;3006;50.956;7.002;2023-01-15T15:36:56;8.90;99.90
5960;DHT22;3006;50.956;7.002;2023-01-15T15:39:33;8.90;99.90
5960;DHT22;3006;50.956;7.002;2023-01-15T15:42:04;8.90;99.90
5960;DHT22;3006;50.956;7.002;2023-01-15T15:44:58;8.90;99.90
5960;DHT22;3006;50.956;7.002;2023-01-15T15:47:44;8.90;99.90
5960;DHT22;3006;50.956;7.002;2023-01-15T15:50:32;9.00;99.90
5960;DHT22;3006;50.956;7.002;2023-01-15T15:53:00;8.90;99.90
5960;DHT22;3006;50.956;7.002;2023-01-15T15:55:36;8.90;99.90
5960;DHT22;3006;50.956;7.002;2023-01-15T15:58:05;8.90;99.90
5960;DHT22;3006;50.956;7.002;2023-01-15T16:00:39;8.90;99.90
5960;DHT22;3006;50.956;7.002;2023-01-15T16:03:17;8.90;99.90
5960;DHT22;3006;50.956;7.002;2023-01-15T16:05:54;8.80;99.90
5960;DHT22;3006;50.956;7.002;2023-01-15T16:08:23;8.80;99.90
5960;DHT22;3006;50.956;7.002;2023-01-15T16:10:53;8.90;99.90
5960;DHT22;3006;50.956;7.002;2023-01-15T16:13:24;8.80;99.90
5960;DHT22;3006;50.956;7.002;2023-01-15T16:15:57;8.80;99.90
5960;DHT22;3006;50.956;7.002;2023-01-15T16:18:29;8.90;99.90
5960;DHT22;3006;50.956;7.002;2023-01-15T16:20:58;8.80;99.90
5960;DHT22;3006;50.956;7.002;2023-01-15T16:23:28;8.90;99.90
5960;DHT22;3006;50.956;7.002;2023-01-15T16:26:03;8.80;99.90
5960;DHT22;3006;50.956;7.002;2023-01-15T16:28:36;8.80;99.90
5960;DHT22;3006;50.956;7.002;2023-01-15T16:31:09;8.80;99.90
5960;DHT22;3006;50.956;7.002;2023-01-15T16:33:38;8.80;99.90
5960;DHT22;3006;50.956;7.002;2023-01-15T16:36:07;8.80;99.90
5960;DHT22;3006;50.956;7.002;2023-01-15T16:38:38;8.90;99.90
5960;DHT22;3006;50.956;7.002;2023-01-15T16:41:15;9.00;99.90
5960;DHT22;3006;50.956;7.002;2023-01-15T16:43:52;9.00;99.90
5960;DHT22;3006;50.956;7.002;2023-01-15T16:46:24;8.90;99.90
5960;DHT22;3006;50.956;7.002;2023-01-15T16:49:18;8.80;99.90
5960;DHT22;3006;50.956;7.002;2023-01-15T16:51:47;8.80;99.90
5960;DHT22;3006;50.956;7.002;2023-01-15T16:54:43;8.80;99.90
5960;DHT22;3006;50.956;7.002;2023-01-15T16:57:31;8.80;99.90
5960;DHT22;3006;50.956;7.002;2023-01-15T17:00:05;8.80;99.90
5960;DHT22;3006;50.956;7.002;2023-01-15T17:02:42;8.80;99.90
5960;DHT22;3006;50.956;7.002;2023-01-15T17:05:18;8.80;99.90